Deering, AK

12:23 PM AKDT on October 01, 2014 (GMT -0800)
Deering (New) | Change Station
CLOSE
Current Station
Airport
Location: Deering,
Elevation: 16 ft
Nearby Weather Stations

Elev 16 ft 66.07 °N, 162.77 °W | Updated 30 minutes ago

Overcast
Overcast
47 °F
Feels Like 47 °F
N
13
Wind Variable Wind from WSW

Today
High -- | Low -- °F
--% Chance of Precip.
Yesterday
High -- | Low -- °F
Precip. -- in
9:02 AM 8:16 PM
Waxing Crescent, 50% visible
Pressure 30.15 in
Visibility 10.0 miles
Clouds Few 2300 ft
Overcast 3700 ft
Dew Point 39 °F
Humidity 74%
Rainfall 0.00 in
Snow Depth 1 in , 1 in , 87 in
UV 0 out of 12
Pollen Not available.
Air Quality Not available.
Flu Activity Not available.
METAR PADE 011953Z AUTO 25011KT 10SM FEW023 OVC037 08/04 A3015 RMK AO2 SLP209 T00830039 TSNO $

More Conditions Fewer Conditions

Pressure 30.15 in
Visibility 10.0 miles
Clouds Few 2300 ft
Overcast 3700 ft
Dew Point 39 °F
Humidity 74%
Rainfall 0.00 in
Snow Depth 1 in , 1 in , 87 in
UV 0 out of 12
Pollen Not available.
Air Quality Not available.
Flu Activity Not available.
METAR PADE 011953Z AUTO 25011KT 10SM FEW023 OVC037 08/04 A3015 RMK AO2 SLP209 T00830039 TSNO $

More Conditions Fewer Conditions

10-Day Weather Forecast

Almanac

Astronomy

Oct. 01, 2014 Rise Set
Actual Time 9:02 AM AKDT 8:16 PM AKDT
Civil Twilight 8:11 AM AKDT 9:07 PM AKDT
Nautical Twilight 7:10 AM AKDT 10:08 PM AKDT
Astronomical Twilight 6:03 AM AKDT 11:14 PM AKDT
Moon 6:05 PM AKDT No Moon Set
Length of Visible Light 12h 56m
Length of Day
11h 14m
Tomorrow will be 7m 2s shorter.
Waxing Crescent, 50% of the Moon is Illuminated
Today
Waxing Crescent
Oct 8
Full
Oct 15
Last Quarter
Oct 23
New
Oct 30
First Quarter

Today's Extremes

State Highs State Lows

Community

WunderPhotos

Upload Photos

1,758,030 photos uploaded!

WunderBlogs® & News

By Dr. Jeff Masters
Director of Meteorology, Weather Underground
By Kari Strenfel
Meteorologist, Weather Underground
By Christopher C. Burt
Weather Historian, Weather Underground
October 1, 2014
October 1, 2014
October 1, 2014

Nearby

Snow Depth

Station Depth Elevation
Susitna Valley High 1 in 375 ft
Turnagain Pass 1 in 1880 ft
Atigun Pass 87 in 4800 ft
Moraine 0 in 2100 ft
Upper Tsaina River 0 in 1750 ft

Earthquake Activity

City Distance Mag. Time & Date
No recent earthquake activity has been reported nearby.
Minimum magnitude displayed is 2.5.

Coastal Water Temperatures

Place Temperature
No Stations Reporting

Nearby Weather Stations